createdAt,value
2018-03-06T00:01:10.111Z,37.27
2018-03-06T00:05:13.518Z,41.73
2018-03-06T00:09:16.908Z,40.80
2018-03-06T00:13:20.321Z,41.63
2018-03-06T00:17:23.703Z,41.17
2018-03-06T00:21:27.472Z,39.13
2018-03-06T00:25:31.672Z,39.93
2018-03-06T00:29:35.030Z,37.07
2018-03-06T00:33:38.397Z,43.07
2018-03-06T00:37:41.826Z,41.33
2018-03-06T00:41:45.958Z,41.50
2018-03-06T00:45:49.342Z,39.50
2018-03-06T00:49:53.699Z,38.50
2018-03-06T00:53:57.105Z,38.10
2018-03-06T00:58:00.543Z,39.87
2018-03-06T01:02:03.929Z,37.23
2018-03-06T01:06:07.311Z,39.27
2018-03-06T01:10:10.831Z,37.90
2018-03-06T01:14:14.234Z,39.27
2018-03-06T01:18:17.635Z,44.50
2018-03-06T01:22:21.339Z,45.50
2018-03-06T01:26:25.508Z,39.70
2018-03-06T01:30:28.906Z,43.30
2018-03-06T01:34:32.274Z,47.77
2018-03-06T01:38:36.697Z,48.70
2018-03-06T01:42:40.846Z,55.17
2018-03-06T01:46:44.304Z,57.30
2018-03-06T01:50:48.456Z,53.00
2018-03-06T01:54:52.581Z,44.77
2018-03-06T01:58:56.759Z,46.87
2018-03-06T02:03:00.148Z,45.80
2018-03-06T02:07:03.560Z,52.53
2018-03-06T02:11:06.943Z,50.50
2018-03-06T02:15:10.350Z,59.53
2018-03-06T02:19:13.744Z,60.50
2018-03-06T02:23:17.881Z,60.13
2018-03-06T02:27:21.284Z,62.67
2018-03-06T02:31:24.784Z,58.93
2018-03-06T02:35:28.918Z,62.93
2018-03-06T02:39:32.326Z,60.47
2018-03-06T02:43:35.713Z,60.33
2018-03-06T02:47:39.894Z,62.33
2018-03-06T02:51:43.314Z,59.90
2018-03-06T02:55:46.704Z,65.57
2018-03-06T02:59:50.130Z,60.87
2018-03-06T03:03:53.519Z,62.90
2018-03-06T03:07:56.926Z,60.80
2018-03-06T03:12:00.417Z,55.83
2018-03-06T03:16:03.841Z,53.37
2018-03-06T03:20:07.324Z,53.00
2018-03-06T03:24:10.715Z,52.93
2018-03-06T03:28:14.092Z,52.53
2018-03-06T03:32:18.245Z,56.83
2018-03-06T03:36:21.616Z,62.50
2018-03-06T03:40:24.995Z,62.27
2018-03-06T03:44:29.562Z,58.20
2018-03-06T03:48:33.693Z,60.77
2018-03-06T03:52:37.821Z,57.27
2018-03-06T03:56:41.949Z,70.20
2018-03-06T04:00:45.354Z,59.13
2018-03-06T04:04:48.720Z,62.93
2018-03-06T04:08:52.139Z,63.07
2018-03-06T04:12:57.025Z,59.27
2018-03-06T04:17:00.550Z,60.87
2018-03-06T04:21:03.928Z,59.23
2018-03-06T04:25:07.317Z,56.20
2018-03-06T04:29:11.450Z,58.63
2018-03-06T04:33:15.571Z,56.17
2018-03-06T04:37:19.727Z,56.33
2018-03-06T04:41:23.102Z,60.23
2018-03-06T04:45:27.337Z,52.57
2018-03-06T04:49:30.721Z,54.57
2018-03-06T04:53:34.887Z,52.40
2018-03-06T04:57:38.283Z,56.17
2018-03-06T05:01:41.659Z,61.07
2018-03-06T05:05:45.795Z,58.00
2018-03-06T05:09:50.060Z,67.77
2018-03-06T05:13:53.454Z,70.97
2018-03-06T05:17:56.825Z,62.43
2018-03-06T05:22:00.983Z,70.07
2018-03-06T05:26:04.522Z,60.47
2018-03-06T05:30:07.994Z,60.93
2018-03-06T05:34:11.444Z,62.77
2018-03-06T05:38:14.817Z,59.83
2018-03-06T05:42:18.209Z,61.03
2018-03-06T05:46:21.594Z,70.43
2018-03-06T05:50:25.750Z,70.63
2018-03-06T05:54:29.189Z,70.43
2018-03-06T05:58:32.618Z,68.77
2018-03-06T06:02:36.792Z,66.50
2018-03-06T06:06:40.180Z,69.37
2018-03-06T06:10:43.553Z,75.43
2018-03-06T06:14:46.951Z,68.53
2018-03-06T06:18:50.521Z,60.60
2018-03-06T06:22:53.886Z,62.53
2018-03-06T06:26:57.382Z,60.60
2018-03-06T06:31:00.821Z,59.20
2018-03-06T06:35:05.106Z,66.00
2018-03-06T06:39:08.482Z,67.57
2018-03-06T06:43:11.841Z,74.47
2018-03-06T06:47:15.985Z,70.97
2018-03-06T06:51:20.129Z,70.73
2018-03-06T06:55:23.476Z,64.93
2018-03-06T06:59:26.920Z,61.23
2018-03-06T07:03:31.067Z,61.53
2018-03-06T07:07:34.450Z,59.67
2018-03-06T07:11:38.571Z,58.53
2018-03-06T07:15:42.769Z,61.80
2018-03-06T07:19:46.123Z,65.23
2018-03-06T07:23:49.478Z,66.07
2018-03-06T07:27:52.990Z,63.97
2018-03-06T07:31:56.384Z,56.03
2018-03-06T07:35:59.746Z,58.40
2018-03-06T07:40:04.640Z,60.50
2018-03-06T07:44:08.059Z,57.10
2018-03-06T07:48:11.410Z,55.93
2018-03-06T07:52:14.823Z,64.70
2018-03-06T07:56:18.329Z,61.90
2018-03-06T08:00:21.703Z,66.20
2018-03-06T08:04:25.826Z,65.47
2018-03-06T08:08:30.242Z,60.47
2018-03-06T08:12:34.385Z,61.83
2018-03-06T08:16:37.763Z,59.57
2018-03-06T08:20:41.896Z,58.30
2018-03-06T08:24:46.094Z,58.10
2018-03-06T08:28:49.494Z,60.67
2018-03-06T08:32:53.869Z,55.83
2018-03-06T08:36:58.047Z,55.93
2018-03-06T08:41:01.490Z,52.80
2018-03-06T08:45:05.601Z,53.57
2018-03-06T08:49:08.967Z,53.30
2018-03-06T08:53:12.332Z,54.30
2018-03-06T08:57:16.495Z,52.50
2018-03-06T09:01:19.870Z,50.73
2018-03-06T09:05:23.242Z,53.40
2018-03-06T09:09:26.555Z,52.17
2018-03-06T09:13:29.904Z,52.20
2018-03-06T09:17:33.283Z,50.93
2018-03-06T09:21:37.430Z,50.63
2018-03-06T09:25:40.842Z,48.87
2018-03-06T09:29:44.209Z,49.97
2018-03-06T09:33:48.453Z,52.73
2018-03-06T09:37:51.831Z,52.43
2018-03-06T09:41:55.230Z,52.37
2018-03-06T09:45:58.590Z,52.83
2018-03-06T09:50:02.070Z,54.27
2018-03-06T09:54:06.254Z,56.40
2018-03-06T09:58:09.604Z,56.53
2018-03-06T10:02:13.764Z,56.17
2018-03-06T10:06:17.121Z,53.77
2018-03-06T10:10:21.257Z,55.17
2018-03-06T10:14:25.373Z,57.10
2018-03-06T10:18:29.560Z,56.57
2018-03-06T10:22:32.929Z,59.20
2018-03-06T10:26:36.356Z,58.93
2018-03-06T10:30:39.717Z,57.47
2018-03-06T10:34:43.854Z,57.60
2018-03-06T10:38:47.243Z,57.13
2018-03-06T10:42:51.406Z,61.33
2018-03-06T10:46:54.862Z,57.17
2018-03-06T10:50:58.232Z,57.10
2018-03-06T10:55:01.607Z,57.13
2018-03-06T10:59:05.124Z,55.30
2018-03-06T11:03:08.494Z,55.13
2018-03-06T11:07:12.700Z,54.87
2018-03-06T11:11:16.066Z,54.00
2018-03-06T11:15:19.413Z,53.30
2018-03-06T11:19:22.772Z,56.77
2018-03-06T11:23:26.146Z,56.07
2018-03-06T11:27:30.296Z,55.43
2018-03-06T11:31:33.648Z,56.50
2018-03-06T11:35:37.015Z,56.17
2018-03-06T11:39:40.391Z,55.57
2018-03-06T11:43:44.647Z,57.67
2018-03-06T11:47:48.008Z,58.70
2018-03-06T11:51:52.126Z,51.50
2018-03-06T11:55:55.698Z,56.80
2018-03-06T11:59:59.062Z,55.27
2018-03-06T12:04:03.432Z,54.47
2018-03-06T12:08:06.808Z,52.93
2018-03-06T12:12:10.205Z,56.13
2018-03-06T12:16:14.416Z,54.47
2018-03-06T12:20:17.778Z,52.33
2018-03-06T12:24:21.433Z,55.37
2018-03-06T12:28:25.528Z,52.90
2018-03-06T12:32:29.076Z,52.00
2018-03-06T12:36:33.227Z,53.20
2018-03-06T12:40:36.616Z,55.77
2018-03-06T12:44:39.989Z,56.80
2018-03-06T12:48:43.410Z,60.73
2018-03-06T12:52:47.525Z,53.40
2018-03-06T12:56:50.905Z,53.57
2018-03-06T13:00:54.284Z,53.30
2018-03-06T13:04:57.671Z,55.63
2018-03-06T13:09:01.414Z,54.27
2018-03-06T13:13:04.916Z,54.60
2018-03-06T13:17:08.270Z,53.50
2018-03-06T13:21:11.688Z,51.50
2018-03-06T13:25:15.833Z,52.50
2018-03-06T13:29:19.207Z,52.70
2018-03-06T13:33:22.582Z,51.30
2018-03-06T13:37:25.958Z,52.53
2018-03-06T13:41:29.333Z,52.77
2018-03-06T13:45:33.481Z,53.07
2018-03-06T13:49:36.846Z,52.00
2018-03-06T13:53:40.201Z,52.20
2018-03-06T13:57:43.575Z,52.07
2018-03-06T14:01:47.691Z,51.97
2018-03-06T14:05:51.847Z,51.17
2018-03-06T14:09:55.338Z,51.63
2018-03-06T14:13:59.486Z,54.27
2018-03-06T14:18:02.928Z,48.93
2018-03-06T14:22:06.338Z,48.70
2018-03-06T14:26:09.784Z,50.47
2018-03-06T14:30:13.994Z,50.03
2018-03-06T14:34:18.135Z,47.80
2018-03-06T14:38:22.307Z,50.60
2018-03-06T14:42:25.690Z,51.17
2018-03-06T14:46:29.286Z,52.17
2018-03-06T14:50:33.532Z,52.20
2018-03-06T14:54:37.012Z,49.07
2018-03-06T14:58:40.423Z,50.50
2018-03-06T15:02:43.818Z,51.33
2018-03-06T15:06:47.972Z,53.47
2018-03-06T15:10:51.354Z,52.63
2018-03-06T15:14:55.497Z,53.77
2018-03-06T15:18:58.974Z,53.63
2018-03-06T15:23:03.153Z,52.23
2018-03-06T15:27:06.510Z,53.37
2018-03-06T15:31:09.913Z,51.90
2018-03-06T15:35:14.044Z,52.10
2018-03-06T15:39:18.228Z,49.77
2018-03-06T15:43:21.560Z,49.40
2018-03-06T15:47:25.719Z,48.73
2018-03-06T15:51:29.093Z,46.90
2018-03-06T15:55:33.254Z,50.23
2018-03-06T15:59:36.647Z,48.87
2018-03-06T16:03:40.019Z,50.30
2018-03-06T16:07:43.406Z,49.83
2018-03-06T16:11:46.819Z,49.37
2018-03-06T16:15:50.403Z,50.87
2018-03-06T16:19:53.766Z,50.87
2018-03-06T16:23:58.079Z,52.40
2018-03-06T16:28:02.218Z,52.10
2018-03-06T16:32:06.351Z,52.13
2018-03-06T16:36:09.728Z,53.13
2018-03-06T16:40:13.102Z,53.57
2018-03-06T16:44:16.593Z,52.87
2018-03-06T16:48:20.030Z,56.30
2018-03-06T16:52:23.509Z,54.97
2018-03-06T16:56:26.895Z,55.80
2018-03-06T17:00:30.294Z,56.17
2018-03-06T17:04:33.693Z,63.63
2018-03-06T17:08:37.186Z,60.47
2018-03-06T17:12:41.355Z,62.13
2018-03-06T17:16:44.738Z,60.70
2018-03-06T17:20:48.127Z,63.73
2018-03-06T17:24:52.485Z,61.53
2018-03-06T17:28:55.860Z,62.10
2018-03-06T17:33:00.023Z,62.60
2018-03-06T17:37:03.427Z,62.90
2018-03-06T17:41:06.849Z,61.43
2018-03-06T17:45:10.235Z,63.20
2018-03-06T17:49:13.626Z,60.53
2018-03-06T17:53:16.990Z,66.10
2018-03-06T17:57:20.348Z,65.70
2018-03-06T18:01:23.768Z,65.30
2018-03-06T18:05:27.164Z,65.90
2018-03-06T18:09:30.558Z,66.23
2018-03-06T18:13:33.957Z,70.47
2018-03-06T18:17:38.122Z,63.40
2018-03-06T18:21:41.582Z,67.73
2018-03-06T18:25:45.817Z,69.73
2018-03-06T18:29:49.950Z,72.27
2018-03-06T18:33:53.344Z,69.00
2018-03-06T18:37:57.585Z,71.83
2018-03-06T18:42:00.999Z,73.93
2018-03-06T18:46:04.400Z,72.57
2018-03-06T18:54:45.511Z,74.43
2018-03-06T18:58:48.882Z,71.07
2018-03-06T19:03:10.500Z,68.67
2018-03-06T19:07:13.934Z,74.23
2018-03-06T19:11:18.128Z,70.77
2018-03-06T19:15:21.676Z,71.67
2018-03-06T19:19:25.827Z,72.60
2018-03-06T19:23:29.228Z,67.93
2018-03-06T19:27:32.625Z,68.60
2018-03-06T19:31:36.037Z,67.27
2018-03-06T19:35:39.461Z,67.07
2018-03-06T19:39:42.874Z,66.63
2018-03-06T19:43:46.255Z,64.23
2018-03-06T19:47:49.657Z,65.90
2018-03-06T19:51:53.028Z,62.77
2018-03-06T19:55:56.456Z,61.17
2018-03-06T20:00:00.745Z,64.50
2018-03-06T20:04:04.157Z,62.23
2018-03-06T20:08:07.604Z,60.90
2018-03-06T20:12:11.202Z,61.67
2018-03-06T20:16:15.356Z,64.00
2018-03-06T20:20:18.753Z,62.53
2018-03-06T20:24:27.823Z,62.17
2018-03-06T20:28:31.740Z,63.93
2018-03-06T20:32:40.996Z,62.57
2018-03-06T20:36:44.463Z,62.27
2018-03-06T20:40:47.939Z,62.37
2018-03-06T20:44:52.124Z,64.00
2018-03-06T20:48:55.487Z,62.30
2018-03-06T20:53:04.383Z,64.10
2018-03-06T20:57:10.066Z,65.07
2018-03-06T21:01:14.238Z,67.53
2018-03-06T21:05:17.631Z,65.27
2018-03-06T21:09:21.050Z,68.97
2018-03-06T21:13:24.456Z,70.27
2018-03-06T21:17:27.849Z,72.73
2018-03-06T21:21:31.319Z,72.57
2018-03-06T21:25:34.723Z,76.00
2018-03-06T21:29:38.115Z,72.03
2018-03-06T21:33:41.481Z,73.87
2018-03-06T21:37:44.854Z,75.37
2018-03-06T21:41:48.282Z,74.70
2018-03-06T21:45:51.682Z,75.00
2018-03-06T21:49:55.935Z,77.87
2018-03-06T21:53:59.318Z,77.70
2018-03-06T21:58:03.501Z,79.37
2018-03-06T22:02:06.871Z,75.93
2018-03-06T22:06:10.260Z,78.47
2018-03-06T22:10:13.866Z,76.23
2018-03-06T22:14:18.004Z,79.57
2018-03-06T22:18:21.696Z,80.57
2018-03-06T22:22:25.947Z,81.23
2018-03-06T22:26:29.334Z,82.80
2018-03-06T22:30:32.740Z,80.70
2018-03-06T22:34:36.113Z,84.27
2018-03-06T22:38:39.547Z,82.17
2018-03-06T22:42:42.954Z,86.50
2018-03-06T22:46:47.100Z,80.93
2018-03-06T22:50:50.453Z,88.53
2018-03-06T22:54:53.964Z,87.57
2018-03-06T22:58:57.354Z,85.23
2018-03-06T23:03:00.734Z,88.87
2018-03-06T23:07:04.116Z,85.93
2018-03-06T23:11:08.271Z,90.33
2018-03-06T23:15:11.651Z,90.90
2018-03-06T23:19:15.033Z,89.17
2018-03-06T23:23:18.476Z,86.83
2018-03-06T23:27:21.838Z,89.07
2018-03-06T23:31:25.205Z,89.47
2018-03-06T23:35:28.576Z,91.47
2018-03-06T23:39:32.191Z,90.50
2018-03-06T23:43:35.587Z,90.63
2018-03-06T23:47:39.803Z,88.63
2018-03-06T23:51:44.010Z,95.47
2018-03-06T23:55:47.378Z,90.10
2018-03-06T23:59:50.728Z,89.60
